sensor_id;sensor_type;location;lat;lon;timestamp;pressure;altitude;pressure_sealevel;temperature;humidity
21706;BME280;11014;53.076;18.208;2023-04-27T00:00:39;101357.09;;;5.64;61.19
21706;BME280;11014;53.076;18.208;2023-04-27T00:03:17;101358.75;;;5.65;60.85
21706;BME280;11014;53.076;18.208;2023-04-27T00:05:47;101357.72;;;5.66;60.58
21706;BME280;11014;53.076;18.208;2023-04-27T00:08:16;101356.09;;;5.65;60.69
21706;BME280;11014;53.076;18.208;2023-04-27T00:10:45;101351.75;;;5.64;60.57
21706;BME280;11014;53.076;18.208;2023-04-27T00:13:14;101353.44;;;5.65;60.83
21706;BME280;11014;53.076;18.208;2023-04-27T00:15:42;101354.22;;;5.66;60.96
21706;BME280;11014;53.076;18.208;2023-04-27T00:18:12;101348.91;;;5.66;60.81
21706;BME280;11014;53.076;18.208;2023-04-27T00:20:41;101354.22;;;5.66;60.84
21706;BME280;11014;53.076;18.208;2023-04-27T00:23:10;101355.44;;;5.63;60.70
21706;BME280;11014;53.076;18.208;2023-04-27T00:25:39;101350.28;;;5.62;60.89
21706;BME280;11014;53.076;18.208;2023-04-27T00:28:07;101361.09;;;5.60;61.06
21706;BME280;11014;53.076;18.208;2023-04-27T00:30:36;101360.47;;;5.58;60.89
21706;BME280;11014;53.076;18.208;2023-04-27T00:33:04;101362.13;;;5.59;61.21
21706;BME280;11014;53.076;18.208;2023-04-27T00:35:33;101365.28;;;5.63;61.08
21706;BME280;11014;53.076;18.208;2023-04-27T00:38:03;101358.75;;;5.65;61.13
21706;BME280;11014;53.076;18.208;2023-04-27T00:40:34;101360.88;;;5.70;60.73
21706;BME280;11014;53.076;18.208;2023-04-27T00:43:02;101362.53;;;5.71;60.66
21706;BME280;11014;53.076;18.208;2023-04-27T00:45:31;101367.69;;;5.72;60.55
21706;BME280;11014;53.076;18.208;2023-04-27T00:48:01;101365.00;;;5.72;60.64
21706;BME280;11014;53.076;18.208;2023-04-27T00:50:30;101369.03;;;5.68;60.71
21706;BME280;11014;53.076;18.208;2023-04-27T00:52:58;101373.44;;;5.61;61.17
21706;BME280;11014;53.076;18.208;2023-04-27T00:55:29;101380.78;;;5.59;60.92
21706;BME280;11014;53.076;18.208;2023-04-27T00:57:58;101375.47;;;5.59;60.75
21706;BME280;11014;53.076;18.208;2023-04-27T01:00:26;101381.16;;;5.56;60.93
21706;BME280;11014;53.076;18.208;2023-04-27T01:02:56;101378.56;;;5.48;61.14
21706;BME280;11014;53.076;18.208;2023-04-27T01:05:25;101371.56;;;5.47;61.29
21706;BME280;11014;53.076;18.208;2023-04-27T01:07:54;101372.88;;;5.51;61.06
21706;BME280;11014;53.076;18.208;2023-04-27T01:10:24;101381.50;;;5.53;61.23
21706;BME280;11014;53.076;18.208;2023-04-27T01:12:53;101380.31;;;5.56;61.28
21706;BME280;11014;53.076;18.208;2023-04-27T01:15:21;101374.06;;;5.63;61.08
21706;BME280;11014;53.076;18.208;2023-04-27T01:17:59;101368.41;;;5.66;61.15
21706;BME280;11014;53.076;18.208;2023-04-27T01:20:29;101374.00;;;5.71;60.87
21706;BME280;11014;53.076;18.208;2023-04-27T01:22:58;101371.34;;;5.71;60.89
21706;BME280;11014;53.076;18.208;2023-04-27T01:25:27;101374.69;;;5.73;60.81
21706;BME280;11014;53.076;18.208;2023-04-27T01:27:55;101369.63;;;5.78;60.87
21706;BME280;11014;53.076;18.208;2023-04-27T01:30:24;101374.59;;;5.81;61.05
21706;BME280;11014;53.076;18.208;2023-04-27T01:32:53;101376.25;;;5.82;61.03
21706;BME280;11014;53.076;18.208;2023-04-27T01:35:22;101370.56;;;5.85;60.95
21706;BME280;11014;53.076;18.208;2023-04-27T01:37:53;101375.19;;;5.91;60.74
21706;BME280;11014;53.076;18.208;2023-04-27T01:40:24;101379.34;;;5.94;60.63
21706;BME280;11014;53.076;18.208;2023-04-27T01:42:53;101377.13;;;5.97;60.68
21706;BME280;11014;53.076;18.208;2023-04-27T01:45:22;101372.91;;;6.03;60.66
21706;BME280;11014;53.076;18.208;2023-04-27T01:47:52;101378.53;;;6.08;60.40
21706;BME280;11014;53.076;18.208;2023-04-27T01:50:21;101380.06;;;6.03;60.71
21706;BME280;11014;53.076;18.208;2023-04-27T01:52:49;101383.31;;;5.75;61.29
21706;BME280;11014;53.076;18.208;2023-04-27T01:55:18;101392.22;;;5.68;61.98
21706;BME280;11014;53.076;18.208;2023-04-27T01:57:47;101391.19;;;5.69;62.25
21706;BME280;11014;53.076;18.208;2023-04-27T02:00:17;101382.34;;;5.68;62.37
21706;BME280;11014;53.076;18.208;2023-04-27T02:02:48;101388.34;;;5.70;62.49
21706;BME280;11014;53.076;18.208;2023-04-27T02:05:23;101386.53;;;5.71;62.37
21706;BME280;11014;53.076;18.208;2023-04-27T02:07:52;101399.03;;;5.70;62.22
21706;BME280;11014;53.076;18.208;2023-04-27T02:10:24;101390.34;;;5.68;62.55
21706;BME280;11014;53.076;18.208;2023-04-27T02:12:55;101395.69;;;5.68;62.47
21706;BME280;11014;53.076;18.208;2023-04-27T02:15:25;101391.38;;;5.67;62.57
21706;BME280;11014;53.076;18.208;2023-04-27T02:17:54;101397.34;;;5.69;62.36
21706;BME280;11014;53.076;18.208;2023-04-27T02:20:23;101393.69;;;5.70;62.44
21706;BME280;11014;53.076;18.208;2023-04-27T02:22:53;101402.78;;;5.98;61.85
21706;BME280;11014;53.076;18.208;2023-04-27T02:25:27;101400.59;;;6.02;61.37
21706;BME280;11014;53.076;18.208;2023-04-27T02:27:56;101405.09;;;6.02;61.33
21706;BME280;11014;53.076;18.208;2023-04-27T02:30:25;101400.78;;;6.01;61.51
21706;BME280;11014;53.076;18.208;2023-04-27T02:33:01;101404.91;;;6.03;61.16
21706;BME280;11014;53.076;18.208;2023-04-27T02:35:32;101404.09;;;6.03;61.35
21706;BME280;11014;53.076;18.208;2023-04-27T02:38:00;101404.91;;;6.03;61.03
21706;BME280;11014;53.076;18.208;2023-04-27T02:40:30;101402.88;;;6.05;61.08
21706;BME280;11014;53.076;18.208;2023-04-27T02:42:58;101408.22;;;6.05;61.38
21706;BME280;11014;53.076;18.208;2023-04-27T02:45:28;101405.75;;;6.04;61.43
21706;BME280;11014;53.076;18.208;2023-04-27T02:47:59;101406.38;;;6.06;61.38
21706;BME280;11014;53.076;18.208;2023-04-27T02:50:28;101411.09;;;6.04;61.28
21706;BME280;11014;53.076;18.208;2023-04-27T02:52:57;101405.75;;;6.04;61.20
21706;BME280;11014;53.076;18.208;2023-04-27T02:55:27;101411.44;;;6.01;61.39
21706;BME280;11014;53.076;18.208;2023-04-27T02:57:57;101416.94;;;5.99;61.13
21706;BME280;11014;53.076;18.208;2023-04-27T03:00:25;101417.59;;;6.01;61.40
21706;BME280;11014;53.076;18.208;2023-04-27T03:02:54;101415.09;;;6.00;61.62
21706;BME280;11014;53.076;18.208;2023-04-27T03:05:25;101417.13;;;5.97;61.62
21706;BME280;11014;53.076;18.208;2023-04-27T03:07:56;101420.44;;;6.00;61.87
21706;BME280;11014;53.076;18.208;2023-04-27T03:10:25;101421.75;;;6.04;61.54
21706;BME280;11014;53.076;18.208;2023-04-27T03:12:53;101423.38;;;6.05;61.65
21706;BME280;11014;53.076;18.208;2023-04-27T03:15:22;101438.19;;;6.07;61.62
21706;BME280;11014;53.076;18.208;2023-04-27T03:17:51;101425.53;;;6.09;61.70
21706;BME280;11014;53.076;18.208;2023-04-27T03:20:20;101435.00;;;6.12;61.59
21706;BME280;11014;53.076;18.208;2023-04-27T03:22:50;101434.66;;;6.15;61.56
21706;BME280;11014;53.076;18.208;2023-04-27T03:25:20;101429.94;;;6.17;61.92
21706;BME280;11014;53.076;18.208;2023-04-27T03:27:49;101442.09;;;6.19;62.31
21706;BME280;11014;53.076;18.208;2023-04-27T03:30:22;101436.03;;;6.25;62.26
21706;BME280;11014;53.076;18.208;2023-04-27T03:32:51;101434.47;;;6.31;62.29
21706;BME280;11014;53.076;18.208;2023-04-27T03:35:20;101441.72;;;6.37;62.21
21706;BME280;11014;53.076;18.208;2023-04-27T03:37:48;101440.38;;;6.41;62.26
21706;BME280;11014;53.076;18.208;2023-04-27T03:40:18;101439.16;;;6.43;61.96
21706;BME280;11014;53.076;18.208;2023-04-27T03:42:46;101450.31;;;6.47;62.23
21706;BME280;11014;53.076;18.208;2023-04-27T03:45:15;101447.91;;;6.52;62.37
21706;BME280;11014;53.076;18.208;2023-04-27T03:47:46;101445.53;;;6.57;62.35
21706;BME280;11014;53.076;18.208;2023-04-27T03:50:15;101449.28;;;6.63;62.01
21706;BME280;11014;53.076;18.208;2023-04-27T03:52:45;101453.25;;;6.67;62.45
21706;BME280;11014;53.076;18.208;2023-04-27T03:55:15;101450.03;;;6.71;62.32
21706;BME280;11014;53.076;18.208;2023-04-27T03:57:44;101455.44;;;6.78;62.52
21706;BME280;11014;53.076;18.208;2023-04-27T04:00:13;101460.41;;;6.81;62.75
21706;BME280;11014;53.076;18.208;2023-04-27T04:02:42;101461.53;;;6.86;62.77
21706;BME280;11014;53.076;18.208;2023-04-27T04:05:12;101468.16;;;6.90;62.47
21706;BME280;11014;53.076;18.208;2023-04-27T04:07:43;101466.75;;;6.94;62.83
21706;BME280;11014;53.076;18.208;2023-04-27T04:10:16;101474.03;;;7.00;62.40
21706;BME280;11014;53.076;18.208;2023-04-27T04:12:46;101466.00;;;7.00;62.58
21706;BME280;11014;53.076;18.208;2023-04-27T04:15:15;101480.22;;;7.01;62.66
21706;BME280;11014;53.076;18.208;2023-04-27T04:17:43;101477.34;;;7.02;62.48
21706;BME280;11014;53.076;18.208;2023-04-27T04:20:13;101481.47;;;7.05;62.35
21706;BME280;11014;53.076;18.208;2023-04-27T04:22:42;101476.97;;;7.05;62.23
21706;BME280;11014;53.076;18.208;2023-04-27T04:25:38;101479.91;;;7.10;62.71
21706;BME280;11014;53.076;18.208;2023-04-27T04:28:07;101485.91;;;7.12;62.44
21706;BME280;11014;53.076;18.208;2023-04-27T04:30:36;101481.56;;;7.11;62.21
21706;BME280;11014;53.076;18.208;2023-04-27T04:33:06;101492.00;;;7.06;62.53
21706;BME280;11014;53.076;18.208;2023-04-27T04:35:37;101491.00;;;7.07;62.96
21706;BME280;11014;53.076;18.208;2023-04-27T04:38:06;101499.63;;;7.09;62.63
21706;BME280;11014;53.076;18.208;2023-04-27T04:40:34;101492.25;;;7.11;62.94
21706;BME280;11014;53.076;18.208;2023-04-27T04:43:05;101498.06;;;7.15;62.78
21706;BME280;11014;53.076;18.208;2023-04-27T04:45:34;101503.41;;;7.15;62.67
21706;BME280;11014;53.076;18.208;2023-04-27T04:48:02;101498.91;;;7.15;62.95
21706;BME280;11014;53.076;18.208;2023-04-27T04:50:31;101503.84;;;7.18;62.96
21706;BME280;11014;53.076;18.208;2023-04-27T04:53:00;101505.44;;;7.13;63.44
21706;BME280;11014;53.076;18.208;2023-04-27T04:55:28;101501.47;;;7.24;62.98
21706;BME280;11014;53.076;18.208;2023-04-27T04:57:57;101499.22;;;7.27;63.49
21706;BME280;11014;53.076;18.208;2023-04-27T05:00:28;101500.56;;;7.38;63.04
21706;BME280;11014;53.076;18.208;2023-04-27T05:02:56;101500.88;;;7.43;62.91
21706;BME280;11014;53.076;18.208;2023-04-27T05:05:26;101500.09;;;7.49;62.94
21706;BME280;11014;53.076;18.208;2023-04-27T05:07:54;101498.06;;;7.51;63.02
21706;BME280;11014;53.076;18.208;2023-04-27T05:10:23;101501.13;;;7.48;62.77
21706;BME280;11014;53.076;18.208;2023-04-27T05:12:51;101499.88;;;7.65;62.83
21706;BME280;11014;53.076;18.208;2023-04-27T05:15:20;101504.06;;;7.74;62.82
21706;BME280;11014;53.076;18.208;2023-04-27T05:17:48;101505.78;;;7.82;62.58
21706;BME280;11014;53.076;18.208;2023-04-27T05:20:17;101509.81;;;7.92;62.25
21706;BME280;11014;53.076;18.208;2023-04-27T05:22:46;101511.97;;;7.82;61.99
21706;BME280;11014;53.076;18.208;2023-04-27T05:25:15;101516.94;;;7.85;62.27
21706;BME280;11014;53.076;18.208;2023-04-27T05:27:43;101506.59;;;8.03;61.95
21706;BME280;11014;53.076;18.208;2023-04-27T05:30:12;101514.91;;;8.08;61.33
21706;BME280;11014;53.076;18.208;2023-04-27T05:32:41;101513.09;;;8.15;61.33
21706;BME280;11014;53.076;18.208;2023-04-27T05:35:09;101523.88;;;8.22;61.16
21706;BME280;11014;53.076;18.208;2023-04-27T05:37:44;101514.53;;;8.32;60.90
21706;BME280;11014;53.076;18.208;2023-04-27T05:40:14;101527.00;;;8.47;60.45
21706;BME280;11014;53.076;18.208;2023-04-27T05:42:45;101519.22;;;8.58;60.43
21706;BME280;11014;53.076;18.208;2023-04-27T05:45:14;101514.41;;;8.75;60.21
21706;BME280;11014;53.076;18.208;2023-04-27T05:47:43;101519.19;;;8.86;59.69
21706;BME280;11014;53.076;18.208;2023-04-27T05:50:12;101527.31;;;8.99;58.98
21706;BME280;11014;53.076;18.208;2023-04-27T05:52:40;101528.41;;;9.11;58.73
21706;BME280;11014;53.076;18.208;2023-04-27T05:55:09;101528.41;;;9.11;58.42
21706;BME280;11014;53.076;18.208;2023-04-27T05:57:37;101537.78;;;9.28;58.47
21706;BME280;11014;53.076;18.208;2023-04-27T06:00:07;101545.22;;;9.33;58.05
21706;BME280;11014;53.076;18.208;2023-04-27T06:02:41;101536.81;;;9.42;57.46
21706;BME280;11014;53.076;18.208;2023-04-27T06:05:09;101535.19;;;9.48;57.33
21706;BME280;11014;53.076;18.208;2023-04-27T06:07:38;101533.16;;;9.63;56.73
21706;BME280;11014;53.076;18.208;2023-04-27T06:10:07;101531.75;;;9.74;56.32
21706;BME280;11014;53.076;18.208;2023-04-27T06:12:36;101534.66;;;9.85;55.85
21706;BME280;11014;53.076;18.208;2023-04-27T06:15:05;101532.22;;;9.97;55.96
21706;BME280;11014;53.076;18.208;2023-04-27T06:17:37;101535.09;;;10.02;55.34
21706;BME280;11014;53.076;18.208;2023-04-27T06:20:07;101528.66;;;9.90;55.70
21706;BME280;11014;53.076;18.208;2023-04-27T06:22:37;101536.31;;;9.93;55.93
21706;BME280;11014;53.076;18.208;2023-04-27T06:25:06;101538.06;;;10.27;55.29
21706;BME280;11014;53.076;18.208;2023-04-27T06:27:35;101534.31;;;10.34;53.89
21706;BME280;11014;53.076;18.208;2023-04-27T06:30:04;101526.69;;;10.31;53.46
21706;BME280;11014;53.076;18.208;2023-04-27T06:32:33;101534.31;;;10.47;53.54
21706;BME280;11014;53.076;18.208;2023-04-27T06:35:02;101535.97;;;10.55;53.52
21706;BME280;11014;53.076;18.208;2023-04-27T06:37:30;101535.97;;;10.61;52.72
21706;BME280;11014;53.076;18.208;2023-04-27T06:40:00;101544.22;;;10.66;52.19
21706;BME280;11014;53.076;18.208;2023-04-27T06:42:28;101537.19;;;10.72;50.82
21706;BME280;11014;53.076;18.208;2023-04-27T06:44:57;101538.00;;;10.86;50.64
21706;BME280;11014;53.076;18.208;2023-04-27T06:47:27;101535.91;;;10.88;50.40
21706;BME280;11014;53.076;18.208;2023-04-27T06:49:55;101539.44;;;10.88;49.56
21706;BME280;11014;53.076;18.208;2023-04-27T06:52:23;101542.13;;;10.95;48.34
21706;BME280;11014;53.076;18.208;2023-04-27T06:54:53;101536.09;;;11.06;48.16
21706;BME280;11014;53.076;18.208;2023-04-27T06:57:21;101528.00;;;11.12;47.99
21706;BME280;11014;53.076;18.208;2023-04-27T06:59:50;101537.50;;;11.15;48.28
21706;BME280;11014;53.076;18.208;2023-04-27T07:02:18;101537.47;;;11.28;47.18
21706;BME280;11014;53.076;18.208;2023-04-27T07:04:48;101534.56;;;11.23;46.87
21706;BME280;11014;53.076;18.208;2023-04-27T07:07:18;101537.06;;;11.31;47.21
21706;BME280;11014;53.076;18.208;2023-04-27T07:09:46;101532.78;;;11.55;46.66
21706;BME280;11014;53.076;18.208;2023-04-27T07:12:15;101524.41;;;11.76;46.15
21706;BME280;11014;53.076;18.208;2023-04-27T07:14:45;101531.16;;;11.92;46.03
21706;BME280;11014;53.076;18.208;2023-04-27T07:17:13;101531.34;;;11.97;45.47
21706;BME280;11014;53.076;18.208;2023-04-27T07:19:42;101528.03;;;11.95;45.62
21706;BME280;11014;53.076;18.208;2023-04-27T07:22:10;101535.84;;;12.03;45.10
21706;BME280;11014;53.076;18.208;2023-04-27T07:24:39;101531.84;;;12.12;44.49
21706;BME280;11014;53.076;18.208;2023-04-27T07:27:07;101534.00;;;12.28;44.77
21706;BME280;11014;53.076;18.208;2023-04-27T07:29:36;101530.44;;;12.34;44.61
21706;BME280;11014;53.076;18.208;2023-04-27T07:32:06;101539.91;;;12.18;44.32
21706;BME280;11014;53.076;18.208;2023-04-27T07:34:35;101545.31;;;12.12;43.75
21706;BME280;11014;53.076;18.208;2023-04-27T07:37:19;101530.13;;;12.24;43.76
21706;BME280;11014;53.076;18.208;2023-04-27T07:39:49;101541.50;;;12.26;43.86
21706;BME280;11014;53.076;18.208;2023-04-27T07:42:20;101530.56;;;12.45;42.99
21706;BME280;11014;53.076;18.208;2023-04-27T07:44:52;101529.59;;;12.58;43.04
21706;BME280;11014;53.076;18.208;2023-04-27T07:47:21;101535.19;;;12.81;43.51
21706;BME280;11014;53.076;18.208;2023-04-27T07:49:50;101533.25;;;12.88;42.35
21706;BME280;11014;53.076;18.208;2023-04-27T07:52:20;101538.03;;;12.86;42.54
21706;BME280;11014;53.076;18.208;2023-04-27T07:54:48;101526.97;;;12.94;42.96
21706;BME280;11014;53.076;18.208;2023-04-27T07:57:17;101525.88;;;12.95;42.13
21706;BME280;11014;53.076;18.208;2023-04-27T07:59:46;101533.00;;;12.90;41.42
21706;BME280;11014;53.076;18.208;2023-04-27T08:02:15;101537.13;;;12.92;40.78
21706;BME280;11014;53.076;18.208;2023-04-27T08:04:48;101534.59;;;12.97;41.16
21706;BME280;11014;53.076;18.208;2023-04-27T08:07:18;101534.81;;;12.96;41.16
21706;BME280;11014;53.076;18.208;2023-04-27T08:09:50;101530.59;;;12.82;40.94
21706;BME280;11014;53.076;18.208;2023-04-27T08:12:19;101530.69;;;12.75;41.15
21706;BME280;11014;53.076;18.208;2023-04-27T08:14:48;101538.63;;;12.88;39.22
21706;BME280;11014;53.076;18.208;2023-04-27T08:17:16;101529.19;;;12.79;39.54
21706;BME280;11014;53.076;18.208;2023-04-27T08:19:45;101531.38;;;12.89;40.72
21706;BME280;11014;53.076;18.208;2023-04-27T08:22:14;101529.09;;;13.11;39.85
21706;BME280;11014;53.076;18.208;2023-04-27T08:24:43;101536.78;;;13.25;38.63
21706;BME280;11014;53.076;18.208;2023-04-27T08:27:11;101531.88;;;13.22;38.46
21706;BME280;11014;53.076;18.208;2023-04-27T08:29:44;101528.47;;;13.27;37.15
21706;BME280;11014;53.076;18.208;2023-04-27T08:32:14;101526.16;;;13.30;37.09
21706;BME280;11014;53.076;18.208;2023-04-27T08:34:43;101526.66;;;13.39;37.42
21706;BME280;11014;53.076;18.208;2023-04-27T08:37:13;101535.22;;;13.18;37.57
21706;BME280;11014;53.076;18.208;2023-04-27T08:39:43;101536.69;;;12.95;37.75
21706;BME280;11014;53.076;18.208;2023-04-27T08:42:12;101535.56;;;12.85;37.77
21706;BME280;11014;53.076;18.208;2023-04-27T08:44:42;101519.91;;;12.93;39.12
21706;BME280;11014;53.076;18.208;2023-04-27T08:47:10;101515.69;;;13.22;38.78
21706;BME280;11014;53.076;18.208;2023-04-27T08:49:39;101523.56;;;13.53;38.63
21706;BME280;11014;53.076;18.208;2023-04-27T08:52:12;101521.06;;;13.70;37.34
21706;BME280;11014;53.076;18.208;2023-04-27T08:54:41;101523.38;;;13.96;36.95
21706;BME280;11014;53.076;18.208;2023-04-27T08:57:11;101524.19;;;13.97;36.76
21706;BME280;11014;53.076;18.208;2023-04-27T08:59:41;101527.00;;;13.90;35.46
21706;BME280;11014;53.076;18.208;2023-04-27T09:02:20;101531.66;;;13.83;36.25
21706;BME280;11014;53.076;18.208;2023-04-27T09:04:49;101531.84;;;13.70;36.74
21706;BME280;11014;53.076;18.208;2023-04-27T09:07:19;101537.50;;;13.69;36.88
21706;BME280;11014;53.076;18.208;2023-04-27T09:09:47;101553.50;;;13.52;37.21
21706;BME280;11014;53.076;18.208;2023-04-27T09:12:20;101540.16;;;13.57;37.38
21706;BME280;11014;53.076;18.208;2023-04-27T09:15:00;101532.03;;;13.57;37.93
21706;BME280;11014;53.076;18.208;2023-04-27T09:17:31;101532.56;;;13.47;37.52
21706;BME280;11014;53.076;18.208;2023-04-27T09:20:08;101530.19;;;13.69;38.08
21706;BME280;11014;53.076;18.208;2023-04-27T09:22:53;101538.09;;;13.71;37.58
21706;BME280;11014;53.076;18.208;2023-04-27T09:25:27;101535.53;;;13.76;37.25
21706;BME280;11014;53.076;18.208;2023-04-27T09:27:57;101518.34;;;13.70;36.98
21706;BME280;11014;53.076;18.208;2023-04-27T09:30:27;101532.00;;;13.75;37.40
21706;BME280;11014;53.076;18.208;2023-04-27T09:32:59;101535.28;;;13.77;36.83
21706;BME280;11014;53.076;18.208;2023-04-27T09:35:31;101531.84;;;13.70;37.08
21706;BME280;11014;53.076;18.208;2023-04-27T09:38:00;101532.44;;;13.72;37.33
21706;BME280;11014;53.076;18.208;2023-04-27T09:40:29;101533.44;;;13.89;37.88
21706;BME280;11014;53.076;18.208;2023-04-27T09:42:59;101542.81;;;14.16;35.69
21706;BME280;11014;53.076;18.208;2023-04-27T09:45:32;101535.13;;;14.02;35.72
21706;BME280;11014;53.076;18.208;2023-04-27T09:48:01;101543.69;;;13.39;35.37
21706;BME280;11014;53.076;18.208;2023-04-27T09:50:43;101552.66;;;13.51;35.33
21706;BME280;11014;53.076;18.208;2023-04-27T09:53:14;101536.56;;;13.75;35.40
21706;BME280;11014;53.076;18.208;2023-04-27T10:04:26;101536.47;;;13.81;33.86
21706;BME280;11014;53.076;18.208;2023-04-27T10:07:10;101530.59;;;14.14;34.15
21706;BME280;11014;53.076;18.208;2023-04-27T10:09:44;101537.34;;;14.35;33.70
21706;BME280;11014;53.076;18.208;2023-04-27T10:12:17;101533.63;;;14.47;33.05
21706;BME280;11014;53.076;18.208;2023-04-27T10:14:53;101538.44;;;14.57;32.50
21706;BME280;11014;53.076;18.208;2023-04-27T10:17:32;101536.66;;;14.51;32.99
21706;BME280;11014;53.076;18.208;2023-04-27T10:20:03;101531.13;;;14.46;32.47
21706;BME280;11014;53.076;18.208;2023-04-27T10:27:41;101540.19;;;14.10;33.76
21706;BME280;11014;53.076;18.208;2023-04-27T10:30:10;101530.50;;;14.20;33.67
21706;BME280;11014;53.076;18.208;2023-04-27T10:32:52;101540.72;;;14.30;34.06
21706;BME280;11014;53.076;18.208;2023-04-27T10:35:34;101543.47;;;14.42;33.70
21706;BME280;11014;53.076;18.208;2023-04-27T10:38:07;101537.38;;;14.58;32.91
21706;BME280;11014;53.076;18.208;2023-04-27T10:40:37;101540.22;;;14.74;32.71
21706;BME280;11014;53.076;18.208;2023-04-27T10:43:10;101527.94;;;14.95;31.91
21706;BME280;11014;53.076;18.208;2023-04-27T10:45:39;101524.59;;;15.16;31.77
21706;BME280;11014;53.076;18.208;2023-04-27T10:48:11;101539.34;;;15.09;31.19
21706;BME280;11014;53.076;18.208;2023-04-27T10:50:42;101532.88;;;14.87;31.51
21706;BME280;11014;53.076;18.208;2023-04-27T10:53:13;101538.44;;;14.68;31.83
21706;BME280;11014;53.076;18.208;2023-04-27T10:55:42;101536.31;;;14.70;32.04
21706;BME280;11014;53.076;18.208;2023-04-27T10:58:11;101542.78;;;14.81;32.00
21706;BME280;11014;53.076;18.208;2023-04-27T11:00:40;101558.06;;;14.87;31.96
21706;BME280;11014;53.076;18.208;2023-04-27T11:03:17;101556.06;;;14.94;32.16
21706;BME280;11014;53.076;18.208;2023-04-27T11:05:48;101555.81;;;14.96;31.92
21706;BME280;11014;53.076;18.208;2023-04-27T11:08:18;101559.84;;;15.05;32.21
21706;BME280;11014;53.076;18.208;2023-04-27T11:10:49;101551.19;;;15.19;31.31
21706;BME280;11014;53.076;18.208;2023-04-27T11:13:20;101546.03;;;15.29;31.42
21706;BME280;11014;53.076;18.208;2023-04-27T11:15:51;101556.38;;;15.32;31.28
21706;BME280;11014;53.076;18.208;2023-04-27T11:18:25;101552.97;;;15.14;31.04
21706;BME280;11014;53.076;18.208;2023-04-27T11:21:11;101559.69;;;15.11;31.68
21706;BME280;11014;53.076;18.208;2023-04-27T11:23:41;101561.50;;;14.82;32.35
21706;BME280;11014;53.076;18.208;2023-04-27T11:26:15;101557.25;;;14.75;32.38
21706;BME280;11014;53.076;18.208;2023-04-27T11:29:07;101554.75;;;14.62;32.72
21706;BME280;11014;53.076;18.208;2023-04-27T11:31:47;101567.56;;;14.43;32.79
21706;BME280;11014;53.076;18.208;2023-04-27T11:34:21;101574.38;;;14.34;33.61
21706;BME280;11014;53.076;18.208;2023-04-27T11:37:03;101567.81;;;14.42;33.45
21706;BME280;11014;53.076;18.208;2023-04-27T11:39:46;101577.59;;;14.66;33.52
21706;BME280;11014;53.076;18.208;2023-04-27T11:42:19;101578.66;;;14.76;32.72
21706;BME280;11014;53.076;18.208;2023-04-27T11:45:00;101572.66;;;14.86;33.16
21706;BME280;11014;53.076;18.208;2023-04-27T11:47:30;101574.88;;;15.01;32.87
21706;BME280;11014;53.076;18.208;2023-04-27T11:50:04;101588.53;;;14.94;31.99
21706;BME280;11014;53.076;18.208;2023-04-27T11:52:34;101562.66;;;14.98;32.60
21706;BME280;11014;53.076;18.208;2023-04-27T11:55:04;101565.13;;;15.00;32.07
21706;BME280;11014;53.076;18.208;2023-04-27T11:57:34;101572.88;;;14.73;32.27
21706;BME280;11014;53.076;18.208;2023-04-27T12:00:05;101568.88;;;14.87;31.86
21706;BME280;11014;53.076;18.208;2023-04-27T12:02:42;101569.59;;;14.82;32.16
21706;BME280;11014;53.076;18.208;2023-04-27T12:05:11;101581.72;;;14.92;31.78
21706;BME280;11014;53.076;18.208;2023-04-27T12:07:41;101573.94;;;14.95;31.36
21706;BME280;11014;53.076;18.208;2023-04-27T12:10:11;101570.28;;;15.01;31.88
21706;BME280;11014;53.076;18.208;2023-04-27T12:12:39;101568.16;;;15.26;30.87
21706;BME280;11014;53.076;18.208;2023-04-27T12:15:08;101565.81;;;15.98;30.80
21706;BME280;11014;53.076;18.208;2023-04-27T12:17:37;101582.13;;;16.31;30.30
21706;BME280;11014;53.076;18.208;2023-04-27T12:20:09;101568.78;;;16.13;30.09
21706;BME280;11014;53.076;18.208;2023-04-27T12:22:37;101570.56;;;15.91;30.30
21706;BME280;11014;53.076;18.208;2023-04-27T12:25:06;101584.31;;;15.73;31.01
21706;BME280;11014;53.076;18.208;2023-04-27T12:27:35;101574.47;;;15.43;31.06
21706;BME280;11014;53.076;18.208;2023-04-27T12:30:04;101574.97;;;15.17;31.21
21706;BME280;11014;53.076;18.208;2023-04-27T12:32:32;101581.31;;;15.23;31.23
21706;BME280;11014;53.076;18.208;2023-04-27T12:35:02;101589.59;;;14.93;31.71
21706;BME280;11014;53.076;18.208;2023-04-27T12:37:31;101583.00;;;14.89;31.62
21706;BME280;11014;53.076;18.208;2023-04-27T12:44:52;101582.88;;;14.84;32.01
21706;BME280;11014;53.076;18.208;2023-04-27T12:47:23;101580.66;;;14.93;31.86
21706;BME280;11014;53.076;18.208;2023-04-27T12:49:54;101592.31;;;15.05;31.83
21706;BME280;11014;53.076;18.208;2023-04-27T12:52:25;101579.97;;;14.97;31.63
21706;BME280;11014;53.076;18.208;2023-04-27T12:54:55;101597.00;;;15.09;31.66
21706;BME280;11014;53.076;18.208;2023-04-27T12:57:26;101574.25;;;15.33;30.85
21706;BME280;11014;53.076;18.208;2023-04-27T12:59:54;101583.91;;;16.71;29.31
21706;BME280;11014;53.076;18.208;2023-04-27T13:02:25;101581.25;;;18.49;27.56
21706;BME280;11014;53.076;18.208;2023-04-27T13:04:55;101573.19;;;19.48;24.92
21706;BME280;11014;53.076;18.208;2023-04-27T13:07:24;101574.34;;;19.77;25.14
21706;BME280;11014;53.076;18.208;2023-04-27T13:09:52;101575.00;;;20.75;24.67
21706;BME280;11014;53.076;18.208;2023-04-27T13:12:31;101567.44;;;22.05;23.25
21706;BME280;11014;53.076;18.208;2023-04-27T13:15:01;101561.00;;;22.64;22.24
21706;BME280;11014;53.076;18.208;2023-04-27T13:17:35;101570.16;;;21.56;22.25
21706;BME280;11014;53.076;18.208;2023-04-27T13:20:04;101571.75;;;20.68;23.18